Terminal Aerodrome Forecast
Issued by NWS

Home | Current Version | Previous Version | Text Only | Print | Product List | Glossary On
Versions: 1 2 3 4 5 6 7 8 9 10 11 12
968
FTUS46 KSGX 271134
TAFSNA
TAF
KSNA 271134Z 2712/2812 VRB05KT P6SM BKN018
     FM271730 22010KT P6SM SCT025
     FM280300 VRB05KT P6SM SCT015
     FM280700 VRB05KT P6SM BKN012=

USA.gov is the U.S. government's official web portal to all federal, state and local government web resources and services.